sensor_id;sensor_type;location;lat;lon;timestamp;pressure;altitude;pressure_sealevel;temperature;humidity
22930;BME280;11630;42.660;23.292;2022-11-03T00:02:22;69396.40;;;16.86;51.10
22930;BME280;11630;42.660;23.292;2022-11-03T00:04:52;69393.94;;;16.83;51.31
22930;BME280;11630;42.660;23.292;2022-11-03T00:07:22;69398.30;;;16.92;51.10
22930;BME280;11630;42.660;23.292;2022-11-03T00:09:52;69399.95;;;16.91;52.02
22930;BME280;11630;42.660;23.292;2022-11-03T00:12:23;69389.03;;;16.76;52.64
22930;BME280;11630;42.660;23.292;2022-11-03T00:14:54;69404.88;;;16.95;52.29
22930;BME280;11630;42.660;23.292;2022-11-03T00:17:25;69386.55;;;16.77;53.14
22930;BME280;11630;42.660;23.292;2022-11-03T00:19:55;69377.22;;;16.76;53.66
22930;BME280;11630;42.660;23.292;2022-11-03T00:22:26;69373.13;;;16.74;55.00
22930;BME280;11630;42.660;23.292;2022-11-03T00:24:57;69369.30;;;16.68;56.68
22930;BME280;11630;42.660;23.292;2022-11-03T00:27:28;69382.70;;;16.76;56.84
22930;BME280;11630;42.660;23.292;2022-11-03T00:29:59;69374.52;;;16.64;58.02
22930;BME280;11630;42.660;23.292;2022-11-03T00:32:30;69383.00;;;16.70;58.40
22930;BME280;11630;42.660;23.292;2022-11-03T00:35:01;69369.02;;;16.66;59.15
22930;BME280;11630;42.660;23.292;2022-11-03T00:37:31;69370.67;;;16.63;60.10
22930;BME280;11630;42.660;23.292;2022-11-03T00:40:02;69359.47;;;16.56;60.81
22930;BME280;11630;42.660;23.292;2022-11-03T00:42:33;69355.11;;;16.47;61.63
22930;BME280;11630;42.660;23.292;2022-11-03T00:45:04;69337.59;;;16.41;62.08
22930;BME280;11630;42.660;23.292;2022-11-03T00:47:35;69350.98;;;16.50;61.94
22930;BME280;11630;42.660;23.292;2022-11-03T00:50:06;69351.26;;;16.49;62.17
22930;BME280;11630;42.660;23.292;2022-11-03T00:52:37;69357.83;;;16.57;62.46
22930;BME280;11630;42.660;23.292;2022-11-03T00:55:08;69373.45;;;16.58;62.78
22930;BME280;11630;42.660;23.292;2022-11-03T00:57:39;69381.91;;;16.69;62.84
22930;BME280;11630;42.660;23.292;2022-11-03T01:00:11;69374.52;;;16.69;63.16
22930;BME280;11630;42.660;23.292;2022-11-03T01:02:42;69338.98;;;16.36;64.83
22930;BME280;11630;42.660;23.292;2022-11-03T01:05:13;69337.62;;;16.29;65.71
22930;BME280;11630;42.660;23.292;2022-11-03T01:07:59;69342.52;;;16.38;65.74
22930;BME280;11630;42.660;23.292;2022-11-03T01:10:30;69347.47;;;16.38;66.09
22930;BME280;11630;42.660;23.292;2022-11-03T01:13:02;69348.27;;;16.45;65.74
22930;BME280;11630;42.660;23.292;2022-11-03T01:15:34;69338.41;;;16.38;66.44
22930;BME280;11630;42.660;23.292;2022-11-03T01:18:05;69352.91;;;16.45;65.70
22930;BME280;11630;42.660;23.292;2022-11-03T01:20:37;69332.11;;;16.34;66.04
22930;BME280;11630;42.660;23.292;2022-11-03T01:23:08;69328.83;;;16.26;66.06
22930;BME280;11630;42.660;23.292;2022-11-03T01:25:39;69325.55;;;16.25;65.56
22930;BME280;11630;42.660;23.292;2022-11-03T01:28:10;69313.53;;;16.15;66.48
22930;BME280;11630;42.660;23.292;2022-11-03T01:30:41;69335.71;;;16.28;66.08
22930;BME280;11630;42.660;23.292;2022-11-03T01:33:11;69315.72;;;16.14;65.83
22930;BME280;11630;42.660;23.292;2022-11-03T01:35:42;69309.72;;;16.04;66.65
22930;BME280;11630;42.660;23.292;2022-11-03T01:38:13;69304.50;;;16.05;66.81
22930;BME280;11630;42.660;23.292;2022-11-03T01:40:44;69293.30;;;15.96;67.11
22930;BME280;11630;42.660;23.292;2022-11-03T01:43:22;69279.39;;;15.75;68.66
22930;BME280;11630;42.660;23.292;2022-11-03T01:46:00;69283.48;;;15.85;68.11
22930;BME280;11630;42.660;23.292;2022-11-03T01:48:29;69276.36;;;15.81;68.35
22930;BME280;11630;42.660;23.292;2022-11-03T01:51:03;69284.01;;;15.88;68.42
22930;BME280;11630;42.660;23.292;2022-11-03T01:53:35;69280.19;;;15.84;68.69
22930;BME280;11630;42.660;23.292;2022-11-03T01:56:08;69285.39;;;15.85;68.84
22930;BME280;11630;42.660;23.292;2022-11-03T01:58:40;69301.78;;;16.00;68.70
22930;BME280;11630;42.660;23.292;2022-11-03T02:01:12;69319.55;;;16.15;69.12
22930;BME280;11630;42.660;23.292;2022-11-03T02:03:48;69313.27;;;16.11;69.94
22930;BME280;11630;42.660;23.292;2022-11-03T02:06:18;69297.14;;;16.00;71.85
22930;BME280;11630;42.660;23.292;2022-11-03T02:08:57;69280.73;;;15.82;74.24
22930;BME280;11630;42.660;23.292;2022-11-03T02:11:25;69298.22;;;15.98;74.95
22930;BME280;11630;42.660;23.292;2022-11-03T02:14:13;69283.48;;;15.85;76.96
22930;BME280;11630;42.660;23.292;2022-11-03T02:16:49;69299.31;;;15.99;77.18
22930;BME280;11630;42.660;23.292;2022-11-03T02:26:00;69239.74;;;15.50;81.59
22930;BME280;11630;42.660;23.292;2022-11-03T02:27:40;69231.02;;;15.37;81.87
22930;BME280;11630;42.660;23.292;2022-11-03T02:30:11;69229.39;;;15.36;81.71
22930;BME280;11630;42.660;23.292;2022-11-03T02:33:07;69242.77;;;15.46;81.55
22930;BME280;11630;42.660;23.292;2022-11-03T02:38:34;69236.48;;;15.42;80.00
22930;BME280;11630;42.660;23.292;2022-11-03T02:41:06;69229.39;;;15.36;80.04
22930;BME280;11630;42.660;23.292;2022-11-03T02:43:38;69243.88;;;15.42;78.86
22930;BME280;11630;42.660;23.292;2022-11-03T02:46:12;69231.02;;;15.37;78.45
22930;BME280;11630;42.660;23.292;2022-11-03T02:48:44;69223.64;;;15.32;77.49
22930;BME280;11630;42.660;23.292;2022-11-03T02:51:15;69213.26;;;15.25;77.48
22930;BME280;11630;42.660;23.292;2022-11-03T02:56:20;69243.03;;;15.45;76.69
22930;BME280;11630;42.660;23.292;2022-11-03T02:59:05;69239.74;;;15.50;76.58
22930;BME280;11630;42.660;23.292;2022-11-03T03:01:37;69248.49;;;15.55;76.32
22930;BME280;11630;42.660;23.292;2022-11-03T03:04:09;69270.91;;;15.73;76.36
22930;BME280;11630;42.660;23.292;2022-11-03T03:06:53;69272.55;;;15.67;76.71
22930;BME280;11630;42.660;23.292;2022-11-03T03:09:26;69273.64;;;15.76;76.95
22930;BME280;11630;42.660;23.292;2022-11-03T03:11:57;69266.00;;;15.66;78.13
22930;BME280;11630;42.660;23.292;2022-11-03T03:14:34;69257.77;;;15.64;78.83
22930;BME280;11630;42.660;23.292;2022-11-03T03:20:01;69236.76;;;15.43;80.63
22930;BME280;11630;42.660;23.292;2022-11-03T03:22:36;69234.83;;;15.45;80.90
22930;BME280;11630;42.660;23.292;2022-11-03T03:25:28;69243.05;;;15.48;81.00
22930;BME280;11630;42.660;23.292;2022-11-03T03:28:01;69244.14;;;15.44;81.33
22930;BME280;11630;42.660;23.292;2022-11-03T03:30:35;69244.41;;;15.50;80.56
22930;BME280;11630;42.660;23.292;2022-11-03T03:33:07;69226.10;;;15.33;80.44
22930;BME280;11630;42.660;23.292;2022-11-03T03:35:43;69227.46;;;15.35;80.76
22930;BME280;11630;42.660;23.292;2022-11-03T03:38:15;69240.84;;;15.48;80.23
22930;BME280;11630;42.660;23.292;2022-11-03T03:40:46;69237.56;;;15.45;81.09
22930;BME280;11630;42.660;23.292;2022-11-03T03:43:18;69236.50;;;15.35;81.69
22930;BME280;11630;42.660;23.292;2022-11-03T03:45:51;69223.09;;;15.34;81.98
22930;BME280;11630;42.660;23.292;2022-11-03T03:48:23;69226.92;;;15.35;81.80
22930;BME280;11630;42.660;23.292;2022-11-03T03:50:54;69228.56;;;15.34;81.65
22930;BME280;11630;42.660;23.292;2022-11-03T03:53:26;69205.86;;;15.22;82.27
22930;BME280;11630;42.660;23.292;2022-11-03T03:55:59;69206.43;;;15.15;82.84
22930;BME280;11630;42.660;23.292;2022-11-03T03:58:29;69207.23;;;15.17;83.46
22930;BME280;11630;42.660;23.292;2022-11-03T04:01:00;69216.52;;;15.20;83.70
22930;BME280;11630;42.660;23.292;2022-11-03T04:03:31;69211.06;;;15.18;84.33
22930;BME280;11630;42.660;23.292;2022-11-03T04:06:02;69220.64;;;15.28;84.05
22930;BME280;11630;42.660;23.292;2022-11-03T04:08:37;69219.55;;;15.27;84.36
22930;BME280;11630;42.660;23.292;2022-11-03T04:11:11;69220.38;;;15.29;84.59
22930;BME280;11630;42.660;23.292;2022-11-03T04:13:58;69218.17;;;15.29;84.81
22930;BME280;11630;42.660;23.292;2022-11-03T04:16:45;69210.52;;;15.25;85.32
22930;BME280;11630;42.660;23.292;2022-11-03T04:19:33;69217.34;;;15.22;85.73
22930;BME280;11630;42.660;23.292;2022-11-03T04:22:20;69202.88;;;15.10;86.25
22930;BME280;11630;42.660;23.292;2022-11-03T04:24:52;69184.58;;;15.00;86.82
22930;BME280;11630;42.660;23.292;2022-11-03T04:27:33;69187.30;;;14.95;87.31
22930;BME280;11630;42.660;23.292;2022-11-03T04:30:18;69162.73;;;14.75;88.37
22930;BME280;11630;42.660;23.292;2022-11-03T04:32:49;69126.44;;;14.48;89.91
22930;BME280;11630;42.660;23.292;2022-11-03T04:35:22;69141.45;;;14.53;89.55
22930;BME280;11630;42.660;23.292;2022-11-03T04:38:03;69129.70;;;14.46;90.12
22930;BME280;11630;42.660;23.292;2022-11-03T04:40:34;69144.16;;;14.60;89.30
22930;BME280;11630;42.660;23.292;2022-11-03T04:43:09;69151.26;;;14.69;89.62
22930;BME280;11630;42.660;23.292;2022-11-03T04:45:36;69155.09;;;14.68;89.60
22930;BME280;11630;42.660;23.292;2022-11-03T04:48:14;69162.20;;;14.74;89.09
22930;BME280;11630;42.660;23.292;2022-11-03T04:50:45;69160.55;;;14.78;88.98
22930;BME280;11630;42.660;23.292;2022-11-03T04:53:19;69160.83;;;14.77;89.40
22930;BME280;11630;42.660;23.292;2022-11-03T04:55:51;69156.72;;;14.72;89.68
22930;BME280;11630;42.660;23.292;2022-11-03T04:58:25;69135.16;;;14.54;91.16
22930;BME280;11630;42.660;23.292;2022-11-03T05:00:56;69152.38;;;14.63;90.89
22930;BME280;11630;42.660;23.292;2022-11-03T05:03:34;69134.35;;;14.52;91.23
22930;BME280;11630;42.660;23.292;2022-11-03T05:06:15;69141.18;;;14.52;91.36
22930;BME280;11630;42.660;23.292;2022-11-03T05:08:48;69141.17;;;14.54;91.50
22930;BME280;11630;42.660;23.292;2022-11-03T05:11:34;69140.36;;;14.60;91.73
22930;BME280;11630;42.660;23.292;2022-11-03T05:14:12;69151.28;;;14.62;91.80
22930;BME280;11630;42.660;23.292;2022-11-03T05:16:35;69136.00;;;14.48;93.02
22930;BME280;11630;42.660;23.292;2022-11-03T05:19:11;69122.63;;;14.32;93.73
22930;BME280;11630;42.660;23.292;2022-11-03T05:21:41;69125.05;;;14.46;93.49
22930;BME280;11630;42.660;23.292;2022-11-03T05:24:13;69096.42;;;14.18;94.87
22930;BME280;11630;42.660;23.292;2022-11-03T05:26:44;69095.86;;;14.20;94.93
22930;BME280;11630;42.660;23.292;2022-11-03T05:29:34;69088.22;;;14.13;95.43
22930;BME280;11630;42.660;23.292;2022-11-03T05:31:58;69082.48;;;14.04;95.86
22930;BME280;11630;42.660;23.292;2022-11-03T05:39:59;69095.05;;;14.11;95.58
22930;BME280;11630;42.660;23.292;2022-11-03T05:42:35;69084.13;;;14.03;96.13
22930;BME280;11630;42.660;23.292;2022-11-03T05:45:18;69098.59;;;14.15;95.86
22930;BME280;11630;42.660;23.292;2022-11-03T05:47:45;69099.95;;;14.18;96.46
22930;BME280;11630;42.660;23.292;2022-11-03T05:50:21;69090.69;;;14.12;96.87
22930;BME280;11630;42.660;23.292;2022-11-03T05:53:38;69084.39;;;14.02;97.39
22930;BME280;11630;42.660;23.292;2022-11-03T05:55:33;69079.22;;;13.96;97.64
22930;BME280;11630;42.660;23.292;2022-11-03T05:58:20;69073.75;;;13.99;98.00
22930;BME280;11630;42.660;23.292;2022-11-03T06:00:41;69054.94;;;13.81;99.25
22930;BME280;11630;42.660;23.292;2022-11-03T06:03:18;69081.94;;;14.01;98.44
22930;BME280;11630;42.660;23.292;2022-11-03T06:05:47;69092.32;;;14.11;98.03
22930;BME280;11630;42.660;23.292;2022-11-03T06:08:26;69102.13;;;14.25;98.45
22930;BME280;11630;42.660;23.292;2022-11-03T06:10:57;69131.35;;;14.43;96.37
22930;BME280;11630;42.660;23.292;2022-11-03T06:13:36;69146.63;;;14.57;96.41
22930;BME280;11630;42.660;23.292;2022-11-03T06:18:59;69172.56;;;14.86;94.10
22930;BME280;11630;42.660;23.292;2022-11-03T06:21:30;69212.70;;;15.17;92.51
22930;BME280;11630;42.660;23.292;2022-11-03T06:24:01;69234.84;;;15.43;91.65
22930;BME280;11630;42.660;23.292;2022-11-03T06:26:32;69247.40;;;15.54;90.89
22930;BME280;11630;42.660;23.292;2022-11-03T06:29:04;69264.06;;;15.68;90.60
22930;BME280;11630;42.660;23.292;2022-11-03T06:31:35;69295.22;;;15.97;88.40
22930;BME280;11630;42.660;23.292;2022-11-03T06:34:48;69323.07;;;16.27;86.58
22930;BME280;11630;42.660;23.292;2022-11-03T06:36:50;69352.10;;;16.46;85.27
22930;BME280;11630;42.660;23.292;2022-11-03T06:39:22;69370.41;;;16.61;83.16
22930;BME280;11630;42.660;23.292;2022-11-03T06:41:53;69387.66;;;16.76;82.55
22930;BME280;11630;42.660;23.292;2022-11-03T06:44:27;69411.15;;;17.04;80.88
22930;BME280;11630;42.660;23.292;2022-11-03T06:47:00;69439.89;;;17.24;79.92
22930;BME280;11630;42.660;23.292;2022-11-03T06:49:33;69449.73;;;17.38;78.56
22930;BME280;11630;42.660;23.292;2022-11-03T06:52:22;69441.80;;;17.32;79.02
22930;BME280;11630;42.660;23.292;2022-11-03T06:54:53;69463.67;;;17.52;78.54
22930;BME280;11630;42.660;23.292;2022-11-03T06:57:23;69465.06;;;17.50;77.97
22930;BME280;11630;42.660;23.292;2022-11-03T06:59:55;69511.88;;;17.91;76.60
22930;BME280;11630;42.660;23.292;2022-11-03T07:05:25;69478.51;;;17.53;77.53
22930;BME280;11630;42.660;23.292;2022-11-03T07:07:41;69522.55;;;17.99;74.87
22930;BME280;11630;42.660;23.292;2022-11-03T07:10:11;69548.87;;;18.21;73.71
22930;BME280;11630;42.660;23.292;2022-11-03T07:12:42;69522.80;;;18.06;73.21
22930;BME280;11630;42.660;23.292;2022-11-03T07:15:23;69500.36;;;17.83;74.89
22930;BME280;11630;42.660;23.292;2022-11-03T07:17:50;69497.38;;;17.74;76.24
22930;BME280;11630;42.660;23.292;2022-11-03T07:20:21;69497.39;;;17.72;76.78
22930;BME280;11630;42.660;23.292;2022-11-03T07:22:52;69497.38;;;17.76;76.24
22930;BME280;11630;42.660;23.292;2022-11-03T07:25:23;69507.20;;;17.88;75.63
22930;BME280;11630;42.660;23.292;2022-11-03T07:27:55;69579.53;;;18.49;72.75
22930;BME280;11630;42.660;23.292;2022-11-03T07:30:29;69614.02;;;18.85;70.69
22930;BME280;11630;42.660;23.292;2022-11-03T07:33:15;69661.45;;;19.24;68.36
22930;BME280;11630;42.660;23.292;2022-11-03T07:35:45;69641.97;;;19.13;67.66
22930;BME280;11630;42.660;23.292;2022-11-03T07:38:17;69653.22;;;19.22;68.13
22930;BME280;11630;42.660;23.292;2022-11-03T07:40:50;69691.87;;;19.53;66.19
22930;BME280;11630;42.660;23.292;2022-11-03T07:43:36;69685.33;;;19.42;65.63
22930;BME280;11630;42.660;23.292;2022-11-03T07:46:08;69646.39;;;19.09;67.31
22930;BME280;11630;42.660;23.292;2022-11-03T07:48:47;69729.73;;;19.82;65.54
22930;BME280;11630;42.660;23.292;2022-11-03T07:51:29;69786.28;;;20.28;62.02
22930;BME280;11630;42.660;23.292;2022-11-03T07:56:49;69836.22;;;20.71;59.49
22930;BME280;11630;42.660;23.292;2022-11-03T07:59:18;69779.94;;;20.26;61.80
22930;BME280;11630;42.660;23.292;2022-11-03T08:01:50;69814.23;;;20.56;60.24
22930;BME280;11630;42.660;23.292;2022-11-03T08:04:24;69767.30;;;20.20;61.49
22930;BME280;11630;42.660;23.292;2022-11-03T08:06:54;69785.40;;;20.36;61.20
22930;BME280;11630;42.660;23.292;2022-11-03T08:09:24;69834.52;;;20.82;59.37
22930;BME280;11630;42.660;23.292;2022-11-03T08:11:54;69818.61;;;20.63;60.84
22930;BME280;11630;42.660;23.292;2022-11-03T08:14:25;69875.97;;;21.16;58.67
22930;BME280;11630;42.660;23.292;2022-11-03T08:16:56;69916.36;;;21.49;57.05
22930;BME280;11630;42.660;23.292;2022-11-03T08:19:27;69976.14;;;22.15;54.63
22930;BME280;11630;42.660;23.292;2022-11-03T08:21:58;70016.61;;;22.43;52.71
22930;BME280;11630;42.660;23.292;2022-11-03T08:24:29;69962.48;;;21.93;53.67
22930;BME280;11630;42.660;23.292;2022-11-03T08:27:00;69966.89;;;21.94;54.09
22930;BME280;11630;42.660;23.292;2022-11-03T08:29:30;69943.31;;;21.70;54.18
22930;BME280;11630;42.660;23.292;2022-11-03T08:32:02;70013.59;;;22.39;51.86
22930;BME280;11630;42.660;23.292;2022-11-03T08:34:33;69955.05;;;21.87;53.10
22930;BME280;11630;42.660;23.292;2022-11-03T08:37:03;70047.73;;;22.60;50.98
22930;BME280;11630;42.660;23.292;2022-11-03T08:39:34;69982.08;;;21.99;51.45
22930;BME280;11630;42.660;23.292;2022-11-03T08:42:05;69984.39;;;22.20;51.33
22930;BME280;11630;42.660;23.292;2022-11-03T08:44:36;69958.66;;;21.87;51.51
22930;BME280;11630;42.660;23.292;2022-11-03T08:47:07;70021.87;;;22.42;50.97
22930;BME280;11630;42.660;23.292;2022-11-03T08:49:38;70067.80;;;22.82;49.91
22930;BME280;11630;42.660;23.292;2022-11-03T08:52:09;70017.99;;;22.43;50.92
22930;BME280;11630;42.660;23.292;2022-11-03T08:54:40;70013.64;;;22.34;50.90
22930;BME280;11630;42.660;23.292;2022-11-03T08:57:11;69949.28;;;21.83;52.48
22930;BME280;11630;42.660;23.292;2022-11-03T08:59:41;69935.58;;;21.68;53.59
22930;BME280;11630;42.660;23.292;2022-11-03T09:02:12;69942.39;;;21.81;52.94
22930;BME280;11630;42.660;23.292;2022-11-03T09:04:42;70037.28;;;22.53;51.47
22930;BME280;11630;42.660;23.292;2022-11-03T09:07:14;70027.55;;;22.58;50.33
22930;BME280;11630;42.660;23.292;2022-11-03T09:09:45;70086.92;;;23.12;48.94
22930;BME280;11630;42.660;23.292;2022-11-03T09:12:16;70119.98;;;23.34;47.81
22930;BME280;11630;42.660;23.292;2022-11-03T09:14:47;70072.35;;;22.97;47.94
22930;BME280;11630;42.660;23.292;2022-11-03T09:17:18;70151.96;;;23.55;45.95
22930;BME280;11630;42.660;23.292;2022-11-03T09:19:49;70136.70;;;23.55;45.86
22930;BME280;11630;42.660;23.292;2022-11-03T09:22:20;70203.34;;;24.08;44.60
22930;BME280;11630;42.660;23.292;2022-11-03T09:24:51;70203.34;;;24.08;44.60
22930;BME280;11630;42.660;23.292;2022-11-03T09:27:22;70225.59;;;24.32;43.92
22930;BME280;11630;42.660;23.292;2022-11-03T09:29:52;70271.98;;;24.61;43.19
22930;BME280;11630;42.660;23.292;2022-11-03T09:32:22;70271.08;;;24.67;43.13
22930;BME280;11630;42.660;23.292;2022-11-03T09:34:53;70327.88;;;25.13;41.96
22930;BME280;11630;42.660;23.292;2022-11-03T09:37:23;70280.19;;;24.74;42.86
22930;BME280;11630;42.660;23.292;2022-11-03T09:39:54;70304.84;;;25.06;41.78
22930;BME280;11630;42.660;23.292;2022-11-03T09:42:25;70329.64;;;25.28;41.16
22930;BME280;11630;42.660;23.292;2022-11-03T09:44:56;70259.67;;;24.39;43.15
22930;BME280;11630;42.660;23.292;2022-11-03T09:47:36;70264.72;;;24.65;42.18
22930;BME280;11630;42.660;23.292;2022-11-03T09:50:17;70307.95;;;25.02;41.55
22930;BME280;11630;42.660;23.292;2022-11-03T09:52:48;70357.86;;;25.41;40.47
22930;BME280;11630;42.660;23.292;2022-11-03T09:55:21;70235.39;;;24.24;42.53
22930;BME280;11630;42.660;23.292;2022-11-03T09:57:54;70327.31;;;25.12;40.70
22930;BME280;11630;42.660;23.292;2022-11-03T10:00:25;70371.80;;;25.39;39.92
22930;BME280;11630;42.660;23.292;2022-11-03T10:02:56;70393.80;;;25.63;39.63
22930;BME280;11630;42.660;23.292;2022-11-03T10:05:27;70390.16;;;25.64;39.49
22930;BME280;11630;42.660;23.292;2022-11-03T10:08:04;70408.44;;;25.73;39.09
22930;BME280;11630;42.660;23.292;2022-11-03T10:10:31;70420.88;;;25.83;38.91
22930;BME280;11630;42.660;23.292;2022-11-03T10:13:01;70438.95;;;26.09;38.54
22930;BME280;11630;42.660;23.292;2022-11-03T10:15:33;70428.00;;;25.92;38.99
22930;BME280;11630;42.660;23.292;2022-11-03T10:18:04;70435.66;;;26.04;38.11
22930;BME280;11630;42.660;23.292;2022-11-03T10:20:38;70396.15;;;25.77;38.20
22930;BME280;11630;42.660;23.292;2022-11-03T10:23:07;70315.22;;;24.99;40.04
22930;BME280;11630;42.660;23.292;2022-11-03T10:25:42;70309.66;;;24.96;39.41
22930;BME280;11630;42.660;23.292;2022-11-03T10:28:18;70350.50;;;25.28;38.25
22930;BME280;11630;42.660;23.292;2022-11-03T10:30:58;70329.17;;;25.20;37.77
22930;BME280;11630;42.660;23.292;2022-11-03T10:33:41;70401.25;;;25.69;37.95
22930;BME280;11630;42.660;23.292;2022-11-03T10:36:22;70200.40;;;23.97;41.69
22930;BME280;11630;42.660;23.292;2022-11-03T10:38:51;70282.50;;;24.66;39.51
22930;BME280;11630;42.660;23.292;2022-11-03T10:41:30;70401.80;;;25.69;37.69
22930;BME280;11630;42.660;23.292;2022-11-03T10:46:59;70392.44;;;25.85;36.31
22930;BME280;11630;42.660;23.292;2022-11-03T10:49:32;70420.45;;;25.94;36.26
22930;BME280;11630;42.660;23.292;2022-11-03T10:52:17;70326.28;;;25.04;37.14
22930;BME280;11630;42.660;23.292;2022-11-03T10:54:46;70298.42;;;24.83;35.70
22930;BME280;11630;42.660;23.292;2022-11-03T10:57:18;70316.26;;;25.05;33.74
22930;BME280;11630;42.660;23.292;2022-11-03T10:59:52;70384.95;;;25.58;33.06
22930;BME280;11630;42.660;23.292;2022-11-03T11:02:27;70429.05;;;25.98;31.84
22930;BME280;11630;42.660;23.292;2022-11-03T11:04:59;70440.42;;;26.02;31.76
22930;BME280;11630;42.660;23.292;2022-11-03T11:07:40;70455.53;;;26.19;31.61
22930;BME280;11630;42.660;23.292;2022-11-03T11:10:20;70381.95;;;25.52;31.74
22930;BME280;11630;42.660;23.292;2022-11-03T11:13:05;70395.03;;;25.78;31.51
22930;BME280;11630;42.660;23.292;2022-11-03T11:15:49;70307.48;;;24.94;32.74
22930;BME280;11630;42.660;23.292;2022-11-03T11:23:50;70411.32;;;25.89;31.89
22930;BME280;11630;42.660;23.292;2022-11-03T11:26:31;70365.38;;;25.42;32.08
22930;BME280;11630;42.660;23.292;2022-11-03T11:31:45;70485.80;;;26.51;31.04
22930;BME280;11630;42.660;23.292;2022-11-03T11:42:10;70464.09;;;26.26;31.87
22930;BME280;11630;42.660;23.292;2022-11-03T11:44:45;70505.13;;;26.66;31.57
22930;BME280;11630;42.660;23.292;2022-11-03T11:47:42;70558.39;;;27.13;30.95
22930;BME280;11630;42.660;23.292;2022-11-03T11:50:28;70499.05;;;26.63;31.59
22930;BME280;11630;42.660;23.292;2022-11-03T11:53:11;70484.72;;;26.50;30.78
22930;BME280;11630;42.660;23.292;2022-11-03T11:55:57;70429.34;;;25.97;31.04
22930;BME280;11630;42.660;23.292;2022-11-03T11:58:48;70397.67;;;25.91;31.33
22930;BME280;11630;42.660;23.292;2022-11-03T12:01:28;70385.06;;;25.72;31.66
22930;BME280;11630;42.660;23.292;2022-11-03T12:04:00;70288.94;;;24.86;32.49
22930;BME280;11630;42.660;23.292;2022-11-03T12:06:37;70333.38;;;25.18;32.65
22930;BME280;11630;42.660;23.292;2022-11-03T12:09:20;70342.56;;;25.17;32.27
22930;BME280;11630;42.660;23.292;2022-11-03T12:11:53;70357.22;;;25.48;31.30
22930;BME280;11630;42.660;23.292;2022-11-03T12:14:39;70335.41;;;25.08;31.12
22930;BME280;11630;42.660;23.292;2022-11-03T12:19:53;70266.55;;;24.49;32.50
22930;BME280;11630;42.660;23.292;2022-11-03T12:25:02;70186.97;;;23.81;34.49
22930;BME280;11630;42.660;23.292;2022-11-03T12:27:40;70125.77;;;23.38;35.47
22930;BME280;11630;42.660;23.292;2022-11-03T12:30:15;70125.36;;;23.23;36.07
22930;BME280;11630;42.660;23.292;2022-11-03T12:32:46;70101.98;;;23.00;36.91
22930;BME280;11630;42.660;23.292;2022-11-03T12:35:21;70084.56;;;22.96;37.48
22930;BME280;11630;42.660;23.292;2022-11-03T12:37:54;70060.25;;;22.86;37.80
22930;BME280;11630;42.660;23.292;2022-11-03T12:40:25;70063.09;;;22.79;38.00
22930;BME280;11630;42.660;23.292;2022-11-03T12:42:56;70053.71;;;22.75;38.17
22930;BME280;11630;42.660;23.292;2022-11-03T12:45:27;70031.02;;;22.41;38.58
22930;BME280;11630;42.660;23.292;2022-11-03T12:47:58;70030.07;;;22.54;38.71
22930;BME280;11630;42.660;23.292;2022-11-03T12:50:29;70024.71;;;22.34;38.99
22930;BME280;11630;42.660;23.292;2022-11-03T12:53:00;69990.21;;;22.19;39.08
22930;BME280;11630;42.660;23.292;2022-11-03T12:55:32;69991.39;;;22.10;39.13
22930;BME280;11630;42.660;23.292;2022-11-03T12:58:03;69992.39;;;22.24;39.17
22930;BME280;11630;42.660;23.292;2022-11-03T13:00:33;69995.41;;;22.30;38.68
22930;BME280;11630;42.660;23.292;2022-11-03T13:03:05;70006.66;;;22.39;38.24
22930;BME280;11630;42.660;23.292;2022-11-03T13:05:36;69972.96;;;21.97;39.49
22930;BME280;11630;42.660;23.292;2022-11-03T13:08:06;69962.79;;;21.89;39.84
22930;BME280;11630;42.660;23.292;2022-11-03T13:10:37;69986.42;;;22.08;39.22
22930;BME280;11630;42.660;23.292;2022-11-03T13:13:09;69976.73;;;22.08;39.08
22930;BME280;11630;42.660;23.292;2022-11-03T13:15:39;69992.16;;;22.17;38.83
22930;BME280;11630;42.660;23.292;2022-11-03T13:18:09;69978.94;;;22.10;38.87
22930;BME280;11630;42.660;23.292;2022-11-03T13:20:39;69976.45;;;22.09;39.04
22930;BME280;11630;42.660;23.292;2022-11-03T13:23:09;69969.58;;;22.04;38.69
22930;BME280;11630;42.660;23.292;2022-11-03T13:25:39;69977.88;;;22.04;39.30
22930;BME280;11630;42.660;23.292;2022-11-03T13:28:10;69982.85;;;22.06;39.52
22930;BME280;11630;42.660;23.292;2022-11-03T13:30:41;69992.53;;;22.06;39.14
22930;BME280;11630;42.660;23.292;2022-11-03T13:33:12;69966.58;;;22.00;39.39
22930;BME280;11630;42.660;23.292;2022-11-03T13:39:05;69976.50;;;22.04;39.54
22930;BME280;11630;42.660;23.292;2022-11-03T13:41:36;69986.20;;;22.02;39.55
22930;BME280;11630;42.660;23.292;2022-11-03T13:44:06;69972.66;;;22.01;39.37
22930;BME280;11630;42.660;23.292;2022-11-03T13:46:37;69973.52;;;21.95;39.41
22930;BME280;11630;42.660;23.292;2022-11-03T13:49:08;69957.80;;;21.90;39.54
22930;BME280;11630;42.660;23.292;2022-11-03T13:51:39;69944.88;;;21.82;39.68
22930;BME280;11630;42.660;23.292;2022-11-03T13:54:09;69943.27;;;21.75;40.15
22930;BME280;11630;42.660;23.292;2022-11-03T13:56:40;69947.41;;;21.75;40.35
22930;BME280;11630;42.660;23.292;2022-11-03T13:59:10;69946.64;;;21.68;40.94
22930;BME280;11630;42.660;23.292;2022-11-03T14:01:41;69939.47;;;21.67;40.64
22930;BME280;11630;42.660;23.292;2022-11-03T14:04:11;69922.36;;;21.62;40.86
22930;BME280;11630;42.660;23.292;2022-11-03T14:06:42;69927.09;;;21.57;41.39
22930;BME280;11630;42.660;23.292;2022-11-03T14:09:13;69912.49;;;21.48;41.52
22930;BME280;11630;42.660;23.292;2022-11-03T14:11:47;69902.35;;;21.35;41.64
22930;BME280;11630;42.660;23.292;2022-11-03T14:14:34;69885.83;;;21.27;42.03
22930;BME280;11630;42.660;23.292;2022-11-03T14:17:04;69884.50;;;21.22;42.45
22930;BME280;11630;42.660;23.292;2022-11-03T14:19:34;69882.55;;;21.22;42.84